sensor_id;sensor_type;location;lat;lon;timestamp;P1;durP1;ratioP1;P2;durP2;ratioP2
79570;SDS011;69034;49.444;7.758;2023-05-10T00:00:18;2.05;;;0.68;;
79570;SDS011;69034;49.444;7.758;2023-05-10T00:04:18;2.15;;;0.70;;
79570;SDS011;69034;49.444;7.758;2023-05-10T00:08:19;1.58;;;0.70;;
79570;SDS011;69034;49.444;7.758;2023-05-10T00:12:20;1.65;;;0.70;;
79570;SDS011;69034;49.444;7.758;2023-05-10T00:16:20;1.98;;;0.70;;
79570;SDS011;69034;49.444;7.758;2023-05-10T00:20:21;2.05;;;0.90;;
79570;SDS011;69034;49.444;7.758;2023-05-10T00:24:22;2.10;;;0.90;;
79570;SDS011;69034;49.444;7.758;2023-05-10T00:28:22;2.63;;;0.95;;
79570;SDS011;69034;49.444;7.758;2023-05-10T00:32:23;2.08;;;0.77;;
79570;SDS011;69034;49.444;7.758;2023-05-10T00:36:24;2.20;;;0.90;;
79570;SDS011;69034;49.444;7.758;2023-05-10T00:40:24;1.88;;;0.75;;
79570;SDS011;69034;49.444;7.758;2023-05-10T00:44:25;1.50;;;0.60;;
79570;SDS011;69034;49.444;7.758;2023-05-10T00:48:26;1.38;;;0.70;;
79570;SDS011;69034;49.444;7.758;2023-05-10T00:52:27;1.55;;;0.63;;
79570;SDS011;69034;49.444;7.758;2023-05-10T00:56:28;2.13;;;0.73;;
79570;SDS011;69034;49.444;7.758;2023-05-10T01:00:29;2.08;;;0.80;;
79570;SDS011;69034;49.444;7.758;2023-05-10T01:04:30;2.38;;;0.88;;
79570;SDS011;69034;49.444;7.758;2023-05-10T01:08:31;1.52;;;0.80;;
79570;SDS011;69034;49.444;7.758;2023-05-10T01:12:33;2.58;;;1.00;;
79570;SDS011;69034;49.444;7.758;2023-05-10T01:16:37;1.67;;;0.70;;
79570;SDS011;69034;49.444;7.758;2023-05-10T01:20:40;1.15;;;0.52;;
79570;SDS011;69034;49.444;7.758;2023-05-10T01:33:43;1.83;;;0.75;;
79570;SDS011;69034;49.444;7.758;2023-05-10T01:37:59;1.95;;;0.70;;
79570;SDS011;69034;49.444;7.758;2023-05-10T01:46:16;3.05;;;1.00;;
79570;SDS011;69034;49.444;7.758;2023-05-10T01:50:22;2.45;;;1.15;;
79570;SDS011;69034;49.444;7.758;2023-05-10T01:54:28;1.80;;;0.90;;
79570;SDS011;69034;49.444;7.758;2023-05-10T01:58:31;2.47;;;1.08;;
79570;SDS011;69034;49.444;7.758;2023-05-10T02:02:39;2.60;;;1.10;;
79570;SDS011;69034;49.444;7.758;2023-05-10T02:06:42;2.53;;;1.10;;
79570;SDS011;69034;49.444;7.758;2023-05-10T02:10:45;2.63;;;1.00;;
79570;SDS011;69034;49.444;7.758;2023-05-10T02:14:47;2.10;;;1.00;;
79570;SDS011;69034;49.444;7.758;2023-05-10T02:18:49;7.82;;;1.17;;
79570;SDS011;69034;49.444;7.758;2023-05-10T02:22:52;2.75;;;1.00;;
79570;SDS011;69034;49.444;7.758;2023-05-10T02:26:54;3.72;;;0.95;;
79570;SDS011;69034;49.444;7.758;2023-05-10T02:30:56;2.28;;;0.80;;
79570;SDS011;69034;49.444;7.758;2023-05-10T02:34:57;2.22;;;1.10;;
79570;SDS011;69034;49.444;7.758;2023-05-10T02:39:00;4.03;;;1.13;;
79570;SDS011;69034;49.444;7.758;2023-05-10T02:43:01;4.93;;;1.20;;
79570;SDS011;69034;49.444;7.758;2023-05-10T02:47:04;4.25;;;1.50;;
79570;SDS011;69034;49.444;7.758;2023-05-10T02:51:05;6.00;;;1.30;;
79570;SDS011;69034;49.444;7.758;2023-05-10T02:55:07;2.58;;;1.20;;
79570;SDS011;69034;49.444;7.758;2023-05-10T02:59:11;3.00;;;1.27;;
79570;SDS011;69034;49.444;7.758;2023-05-10T03:03:12;3.53;;;1.52;;
79570;SDS011;69034;49.444;7.758;2023-05-10T03:07:12;2.97;;;1.20;;
79570;SDS011;69034;49.444;7.758;2023-05-10T03:11:16;3.53;;;1.50;;
79570;SDS011;69034;49.444;7.758;2023-05-10T03:20:10;3.08;;;1.30;;
79570;SDS011;69034;49.444;7.758;2023-05-10T03:24:12;2.90;;;1.23;;
79570;SDS011;69034;49.444;7.758;2023-05-10T03:28:15;2.80;;;1.38;;
79570;SDS011;69034;49.444;7.758;2023-05-10T03:32:17;3.70;;;1.95;;
79570;SDS011;69034;49.444;7.758;2023-05-10T03:36:18;5.88;;;1.70;;
79570;SDS011;69034;49.444;7.758;2023-05-10T03:40:19;3.10;;;1.60;;
79570;SDS011;69034;49.444;7.758;2023-05-10T03:44:20;4.32;;;1.30;;
79570;SDS011;69034;49.444;7.758;2023-05-10T03:48:20;5.05;;;2.25;;
79570;SDS011;69034;49.444;7.758;2023-05-10T03:52:21;3.45;;;1.67;;
79570;SDS011;69034;49.444;7.758;2023-05-10T03:56:22;2.72;;;1.27;;
79570;SDS011;69034;49.444;7.758;2023-05-10T04:00:22;3.38;;;1.52;;
79570;SDS011;69034;49.444;7.758;2023-05-10T04:04:23;4.20;;;2.22;;
79570;SDS011;69034;49.444;7.758;2023-05-10T04:08:24;4.93;;;2.35;;
79570;SDS011;69034;49.444;7.758;2023-05-10T04:12:24;3.85;;;1.65;;
79570;SDS011;69034;49.444;7.758;2023-05-10T04:16:25;3.70;;;1.70;;
79570;SDS011;69034;49.444;7.758;2023-05-10T04:20:25;3.13;;;1.23;;
79570;SDS011;69034;49.444;7.758;2023-05-10T04:24:26;3.30;;;1.35;;
79570;SDS011;69034;49.444;7.758;2023-05-10T04:28:27;3.03;;;1.40;;
79570;SDS011;69034;49.444;7.758;2023-05-10T04:32:28;4.47;;;1.40;;
79570;SDS011;69034;49.444;7.758;2023-05-10T04:36:29;2.30;;;1.13;;
79570;SDS011;69034;49.444;7.758;2023-05-10T04:40:29;3.20;;;1.30;;
79570;SDS011;69034;49.444;7.758;2023-05-10T04:44:30;3.35;;;1.10;;
79570;SDS011;69034;49.444;7.758;2023-05-10T04:48:34;2.50;;;1.40;;
79570;SDS011;69034;49.444;7.758;2023-05-10T04:52:34;3.78;;;1.10;;
79570;SDS011;69034;49.444;7.758;2023-05-10T04:56:35;3.03;;;1.20;;
79570;SDS011;69034;49.444;7.758;2023-05-10T05:00:36;3.15;;;1.38;;
79570;SDS011;69034;49.444;7.758;2023-05-10T05:04:36;2.55;;;1.23;;
79570;SDS011;69034;49.444;7.758;2023-05-10T05:08:37;1.95;;;0.90;;
79570;SDS011;69034;49.444;7.758;2023-05-10T05:12:37;3.00;;;1.40;;
79570;SDS011;69034;49.444;7.758;2023-05-10T05:16:38;3.50;;;1.70;;
79570;SDS011;69034;49.444;7.758;2023-05-10T05:20:39;2.67;;;1.10;;
79570;SDS011;69034;49.444;7.758;2023-05-10T05:24:39;2.83;;;1.52;;
79570;SDS011;69034;49.444;7.758;2023-05-10T05:28:40;2.55;;;1.10;;
79570;SDS011;69034;49.444;7.758;2023-05-10T05:32:41;2.90;;;1.20;;
79570;SDS011;69034;49.444;7.758;2023-05-10T05:36:41;9.80;;;1.35;;
79570;SDS011;69034;49.444;7.758;2023-05-10T05:40:42;2.10;;;0.95;;
79570;SDS011;69034;49.444;7.758;2023-05-10T05:44:42;2.17;;;0.93;;
79570;SDS011;69034;49.444;7.758;2023-05-10T05:48:43;2.90;;;0.93;;
79570;SDS011;69034;49.444;7.758;2023-05-10T05:52:44;5.07;;;1.27;;
79570;SDS011;69034;49.444;7.758;2023-05-10T05:56:44;2.60;;;1.05;;
79570;SDS011;69034;49.444;7.758;2023-05-10T06:00:45;2.33;;;1.08;;
79570;SDS011;69034;49.444;7.758;2023-05-10T06:04:45;2.40;;;0.95;;
79570;SDS011;69034;49.444;7.758;2023-05-10T06:08:46;2.55;;;0.95;;
79570;SDS011;69034;49.444;7.758;2023-05-10T06:12:47;3.97;;;1.38;;
79570;SDS011;69034;49.444;7.758;2023-05-10T06:16:47;3.42;;;1.02;;
79570;SDS011;69034;49.444;7.758;2023-05-10T06:20:49;2.05;;;0.95;;
79570;SDS011;69034;49.444;7.758;2023-05-10T06:24:50;2.40;;;1.00;;
79570;SDS011;69034;49.444;7.758;2023-05-10T06:28:50;5.47;;;1.35;;
79570;SDS011;69034;49.444;7.758;2023-05-10T06:32:51;2.60;;;1.00;;
79570;SDS011;69034;49.444;7.758;2023-05-10T06:36:51;3.05;;;1.10;;
79570;SDS011;69034;49.444;7.758;2023-05-10T06:40:52;2.20;;;0.90;;
79570;SDS011;69034;49.444;7.758;2023-05-10T06:44:53;3.72;;;0.88;;
79570;SDS011;69034;49.444;7.758;2023-05-10T06:48:53;2.55;;;1.00;;
79570;SDS011;69034;49.444;7.758;2023-05-10T06:52:54;4.63;;;1.08;;
79570;SDS011;69034;49.444;7.758;2023-05-10T06:56:55;2.17;;;0.90;;
79570;SDS011;69034;49.444;7.758;2023-05-10T07:01:01;2.58;;;0.80;;
79570;SDS011;69034;49.444;7.758;2023-05-10T07:05:02;2.00;;;0.82;;
79570;SDS011;69034;49.444;7.758;2023-05-10T07:09:03;2.20;;;0.90;;
79570;SDS011;69034;49.444;7.758;2023-05-10T07:13:04;3.08;;;1.02;;
79570;SDS011;69034;49.444;7.758;2023-05-10T07:17:04;3.90;;;1.10;;
79570;SDS011;69034;49.444;7.758;2023-05-10T07:21:05;2.20;;;0.80;;
79570;SDS011;69034;49.444;7.758;2023-05-10T07:25:06;3.25;;;1.10;;
79570;SDS011;69034;49.444;7.758;2023-05-10T07:29:06;2.35;;;1.08;;
79570;SDS011;69034;49.444;7.758;2023-05-10T07:33:08;1.88;;;0.70;;
79570;SDS011;69034;49.444;7.758;2023-05-10T07:37:10;4.28;;;1.17;;
79570;SDS011;69034;49.444;7.758;2023-05-10T07:41:11;2.20;;;1.00;;
79570;SDS011;69034;49.444;7.758;2023-05-10T07:45:12;2.50;;;1.00;;
79570;SDS011;69034;49.444;7.758;2023-05-10T07:49:12;2.30;;;0.95;;
79570;SDS011;69034;49.444;7.758;2023-05-10T07:53:13;3.85;;;0.90;;
79570;SDS011;69034;49.444;7.758;2023-05-10T07:57:14;2.40;;;0.90;;
79570;SDS011;69034;49.444;7.758;2023-05-10T08:01:17;2.20;;;0.93;;
79570;SDS011;69034;49.444;7.758;2023-05-10T08:05:18;2.80;;;0.80;;
79570;SDS011;69034;49.444;7.758;2023-05-10T08:09:18;2.20;;;0.90;;
79570;SDS011;69034;49.444;7.758;2023-05-10T08:13:23;2.65;;;0.90;;
79570;SDS011;69034;49.444;7.758;2023-05-10T08:17:24;3.15;;;1.00;;
79570;SDS011;69034;49.444;7.758;2023-05-10T08:21:24;3.10;;;0.70;;
79570;SDS011;69034;49.444;7.758;2023-05-10T08:25:26;1.83;;;0.80;;
79570;SDS011;69034;49.444;7.758;2023-05-10T08:29:26;3.67;;;0.50;;
79570;SDS011;69034;49.444;7.758;2023-05-10T08:33:27;2.22;;;0.85;;
79570;SDS011;69034;49.444;7.758;2023-05-10T08:37:29;2.42;;;0.90;;
79570;SDS011;69034;49.444;7.758;2023-05-10T08:41:30;3.20;;;0.70;;
79570;SDS011;69034;49.444;7.758;2023-05-10T08:45:40;2.92;;;0.80;;
79570;SDS011;69034;49.444;7.758;2023-05-10T08:49:47;2.30;;;0.90;;
79570;SDS011;69034;49.444;7.758;2023-05-10T08:53:51;2.67;;;0.77;;
79570;SDS011;69034;49.444;7.758;2023-05-10T08:57:52;3.15;;;0.73;;
79570;SDS011;69034;49.444;7.758;2023-05-10T09:01:53;2.05;;;1.00;;
79570;SDS011;69034;49.444;7.758;2023-05-10T09:05:55;2.65;;;1.08;;
79570;SDS011;69034;49.444;7.758;2023-05-10T09:09:56;2.15;;;0.90;;
79570;SDS011;69034;49.444;7.758;2023-05-10T09:13:57;2.15;;;0.85;;
79570;SDS011;69034;49.444;7.758;2023-05-10T09:17:58;3.70;;;0.60;;
79570;SDS011;69034;49.444;7.758;2023-05-10T09:22:02;1.25;;;0.50;;
79570;SDS011;69034;49.444;7.758;2023-05-10T09:26:03;1.50;;;0.70;;
79570;SDS011;69034;49.444;7.758;2023-05-10T09:30:07;2.90;;;0.90;;
79570;SDS011;69034;49.444;7.758;2023-05-10T09:34:08;1.27;;;0.73;;
79570;SDS011;69034;49.444;7.758;2023-05-10T09:38:09;1.48;;;0.65;;
79570;SDS011;69034;49.444;7.758;2023-05-10T09:42:10;1.92;;;0.80;;
79570;SDS011;69034;49.444;7.758;2023-05-10T09:46:11;3.90;;;1.00;;
79570;SDS011;69034;49.444;7.758;2023-05-10T09:50:11;1.83;;;0.60;;
79570;SDS011;69034;49.444;7.758;2023-05-10T09:54:13;2.67;;;0.90;;
79570;SDS011;69034;49.444;7.758;2023-05-10T09:58:15;2.20;;;0.85;;
79570;SDS011;69034;49.444;7.758;2023-05-10T10:02:16;1.75;;;0.75;;
79570;SDS011;69034;49.444;7.758;2023-05-10T10:06:18;3.00;;;1.00;;
79570;SDS011;69034;49.444;7.758;2023-05-10T10:10:19;4.38;;;1.00;;
79570;SDS011;69034;49.444;7.758;2023-05-10T10:14:20;2.50;;;0.65;;
79570;SDS011;69034;49.444;7.758;2023-05-10T10:18:22;4.20;;;0.70;;
79570;SDS011;69034;49.444;7.758;2023-05-10T10:22:26;2.10;;;0.80;;
79570;SDS011;69034;49.444;7.758;2023-05-10T10:26:27;3.30;;;1.00;;
79570;SDS011;69034;49.444;7.758;2023-05-10T10:34:29;4.68;;;1.00;;
79570;SDS011;69034;49.444;7.758;2023-05-10T10:38:38;2.78;;;0.85;;
79570;SDS011;69034;49.444;7.758;2023-05-10T10:43:44;3.53;;;0.75;;
79570;SDS011;69034;49.444;7.758;2023-05-10T10:47:28;5.43;;;1.13;;
79570;SDS011;69034;49.444;7.758;2023-05-10T10:51:32;4.07;;;0.82;;
79570;SDS011;69034;49.444;7.758;2023-05-10T10:55:44;4.63;;;0.90;;
79570;SDS011;69034;49.444;7.758;2023-05-10T10:59:47;5.65;;;1.10;;
79570;SDS011;69034;49.444;7.758;2023-05-10T11:08:06;3.63;;;0.90;;
79570;SDS011;69034;49.444;7.758;2023-05-10T11:12:11;1.38;;;0.60;;
79570;SDS011;69034;49.444;7.758;2023-05-10T11:16:13;2.65;;;0.93;;
79570;SDS011;69034;49.444;7.758;2023-05-10T11:20:14;2.08;;;0.80;;
79570;SDS011;69034;49.444;7.758;2023-05-10T11:24:15;2.80;;;0.85;;
79570;SDS011;69034;49.444;7.758;2023-05-10T11:28:18;4.55;;;1.00;;
79570;SDS011;69034;49.444;7.758;2023-05-10T11:32:19;2.17;;;0.93;;
79570;SDS011;69034;49.444;7.758;2023-05-10T11:40:28;2.50;;;1.05;;
79570;SDS011;69034;49.444;7.758;2023-05-10T11:44:29;2.03;;;0.77;;
79570;SDS011;69034;49.444;7.758;2023-05-10T11:48:31;3.38;;;0.60;;
79570;SDS011;69034;49.444;7.758;2023-05-10T11:52:35;3.10;;;0.88;;
79570;SDS011;69034;49.444;7.758;2023-05-10T11:56:37;2.95;;;0.95;;
79570;SDS011;69034;49.444;7.758;2023-05-10T12:00:39;1.95;;;0.70;;
79570;SDS011;69034;49.444;7.758;2023-05-10T12:04:40;3.30;;;0.90;;
79570;SDS011;69034;49.444;7.758;2023-05-10T12:08:44;2.35;;;1.00;;
79570;SDS011;69034;49.444;7.758;2023-05-10T12:12:46;1.92;;;0.90;;
79570;SDS011;69034;49.444;7.758;2023-05-10T12:16:49;2.80;;;0.90;;
79570;SDS011;69034;49.444;7.758;2023-05-10T12:20:53;3.00;;;0.85;;
79570;SDS011;69034;49.444;7.758;2023-05-10T12:24:54;2.25;;;0.80;;
79570;SDS011;69034;49.444;7.758;2023-05-10T12:29:01;2.42;;;1.23;;
79570;SDS011;69034;49.444;7.758;2023-05-10T12:33:15;3.53;;;1.10;;
79570;SDS011;69034;49.444;7.758;2023-05-10T12:37:18;2.40;;;1.30;;
79570;SDS011;69034;49.444;7.758;2023-05-10T12:41:24;1.98;;;0.60;;
79570;SDS011;69034;49.444;7.758;2023-05-10T12:45:25;1.70;;;0.63;;
79570;SDS011;69034;49.444;7.758;2023-05-10T12:49:26;2.85;;;0.90;;
79570;SDS011;69034;49.444;7.758;2023-05-10T12:53:26;2.88;;;0.60;;
79570;SDS011;69034;49.444;7.758;2023-05-10T12:57:27;3.92;;;0.60;;
79570;SDS011;69034;49.444;7.758;2023-05-10T13:01:28;1.30;;;0.60;;
79570;SDS011;69034;49.444;7.758;2023-05-10T13:05:28;1.48;;;0.60;;
79570;SDS011;69034;49.444;7.758;2023-05-10T13:09:29;2.30;;;1.00;;
79570;SDS011;69034;49.444;7.758;2023-05-10T13:13:30;2.50;;;0.90;;
79570;SDS011;69034;49.444;7.758;2023-05-10T13:17:30;3.05;;;0.70;;
79570;SDS011;69034;49.444;7.758;2023-05-10T13:21:31;3.80;;;0.80;;
79570;SDS011;69034;49.444;7.758;2023-05-10T13:25:32;2.30;;;0.98;;
79570;SDS011;69034;49.444;7.758;2023-05-10T13:29:34;2.38;;;0.85;;
79570;SDS011;69034;49.444;7.758;2023-05-10T13:33:34;3.35;;;1.02;;
79570;SDS011;69034;49.444;7.758;2023-05-10T13:37:35;3.58;;;0.50;;
79570;SDS011;69034;49.444;7.758;2023-05-10T13:41:37;2.58;;;0.70;;
79570;SDS011;69034;49.444;7.758;2023-05-10T13:45:38;2.88;;;0.60;;
79570;SDS011;69034;49.444;7.758;2023-05-10T13:49:38;2.15;;;0.52;;
79570;SDS011;69034;49.444;7.758;2023-05-10T13:53:39;3.67;;;0.70;;
79570;SDS011;69034;49.444;7.758;2023-05-10T13:57:40;1.05;;;0.50;;
79570;SDS011;69034;49.444;7.758;2023-05-10T14:01:41;1.73;;;0.57;;
79570;SDS011;69034;49.444;7.758;2023-05-10T14:05:42;4.72;;;0.80;;
79570;SDS011;69034;49.444;7.758;2023-05-10T14:09:44;2.30;;;0.70;;
79570;SDS011;69034;49.444;7.758;2023-05-10T14:13:45;2.13;;;0.70;;
79570;SDS011;69034;49.444;7.758;2023-05-10T14:17:46;1.98;;;1.00;;
79570;SDS011;69034;49.444;7.758;2023-05-10T14:21:46;2.70;;;1.27;;
79570;SDS011;69034;49.444;7.758;2023-05-10T14:25:47;2.88;;;0.52;;
79570;SDS011;69034;49.444;7.758;2023-05-10T14:29:47;3.35;;;0.60;;
79570;SDS011;69034;49.444;7.758;2023-05-10T14:33:48;1.90;;;0.65;;
79570;SDS011;69034;49.444;7.758;2023-05-10T14:37:49;1.52;;;0.50;;
79570;SDS011;69034;49.444;7.758;2023-05-10T14:41:50;1.45;;;0.52;;
79570;SDS011;69034;49.444;7.758;2023-05-10T14:45:52;4.10;;;0.70;;
79570;SDS011;69034;49.444;7.758;2023-05-10T14:49:52;2.35;;;0.93;;
79570;SDS011;69034;49.444;7.758;2023-05-10T14:53:53;3.85;;;0.90;;
79570;SDS011;69034;49.444;7.758;2023-05-10T14:57:53;2.40;;;0.85;;
79570;SDS011;69034;49.444;7.758;2023-05-10T15:01:54;3.22;;;0.77;;
79570;SDS011;69034;49.444;7.758;2023-05-10T15:05:55;2.42;;;0.90;;
79570;SDS011;69034;49.444;7.758;2023-05-10T15:09:57;1.67;;;0.60;;
79570;SDS011;69034;49.444;7.758;2023-05-10T15:13:58;2.08;;;0.60;;
79570;SDS011;69034;49.444;7.758;2023-05-10T15:17:58;2.80;;;0.90;;
79570;SDS011;69034;49.444;7.758;2023-05-10T15:21:59;2.83;;;0.80;;
79570;SDS011;69034;49.444;7.758;2023-05-10T15:26:00;2.13;;;0.63;;
79570;SDS011;69034;49.444;7.758;2023-05-10T15:30:01;5.43;;;1.00;;
79570;SDS011;69034;49.444;7.758;2023-05-10T15:34:03;4.15;;;1.10;;
79570;SDS011;69034;49.444;7.758;2023-05-10T15:38:03;2.65;;;0.90;;
79570;SDS011;69034;49.444;7.758;2023-05-10T15:42:04;2.85;;;0.60;;
79570;SDS011;69034;49.444;7.758;2023-05-10T15:46:04;1.48;;;0.50;;
79570;SDS011;69034;49.444;7.758;2023-05-10T15:50:06;5.43;;;0.80;;
79570;SDS011;69034;49.444;7.758;2023-05-10T15:54:08;2.28;;;0.80;;
79570;SDS011;69034;49.444;7.758;2023-05-10T15:58:09;3.28;;;0.80;;
79570;SDS011;69034;49.444;7.758;2023-05-10T16:02:10;1.88;;;0.63;;
79570;SDS011;69034;49.444;7.758;2023-05-10T16:06:11;0.77;;;0.55;;
79570;SDS011;69034;49.444;7.758;2023-05-10T16:10:12;1.83;;;0.80;;
79570;SDS011;69034;49.444;7.758;2023-05-10T16:14:12;3.75;;;0.73;;
79570;SDS011;69034;49.444;7.758;2023-05-10T16:18:13;3.63;;;0.93;;
79570;SDS011;69034;49.444;7.758;2023-05-10T16:22:14;4.18;;;0.50;;
79570;SDS011;69034;49.444;7.758;2023-05-10T16:26:14;1.48;;;0.47;;
79570;SDS011;69034;49.444;7.758;2023-05-10T16:30:15;2.08;;;0.55;;
79570;SDS011;69034;49.444;7.758;2023-05-10T16:34:16;1.02;;;0.43;;
79570;SDS011;69034;49.444;7.758;2023-05-10T16:38:17;4.65;;;0.90;;
79570;SDS011;69034;49.444;7.758;2023-05-10T16:42:17;2.97;;;1.05;;
79570;SDS011;69034;49.444;7.758;2023-05-10T16:46:18;1.95;;;0.65;;
79570;SDS011;69034;49.444;7.758;2023-05-10T16:50:18;1.77;;;0.60;;
79570;SDS011;69034;49.444;7.758;2023-05-10T16:54:19;1.15;;;0.55;;
79570;SDS011;69034;49.444;7.758;2023-05-10T16:58:20;1.08;;;0.52;;
79570;SDS011;69034;49.444;7.758;2023-05-10T17:02:22;3.17;;;0.70;;
79570;SDS011;69034;49.444;7.758;2023-05-10T17:06:22;2.38;;;0.80;;
79570;SDS011;69034;49.444;7.758;2023-05-10T17:10:23;2.58;;;0.95;;
79570;SDS011;69034;49.444;7.758;2023-05-10T17:14:24;3.88;;;0.90;;
79570;SDS011;69034;49.444;7.758;2023-05-10T17:18:24;2.05;;;0.63;;
79570;SDS011;69034;49.444;7.758;2023-05-10T17:22:25;2.60;;;1.10;;
79570;SDS011;69034;49.444;7.758;2023-05-10T17:26:26;1.85;;;0.65;;
79570;SDS011;69034;49.444;7.758;2023-05-10T17:30:26;2.30;;;0.90;;
79570;SDS011;69034;49.444;7.758;2023-05-10T17:34:31;7.38;;;2.03;;
79570;SDS011;69034;49.444;7.758;2023-05-10T17:38:32;3.25;;;1.35;;
79570;SDS011;69034;49.444;7.758;2023-05-10T17:42:32;6.03;;;4.15;;
79570;SDS011;69034;49.444;7.758;2023-05-10T17:46:33;4.75;;;1.52;;
79570;SDS011;69034;49.444;7.758;2023-05-10T17:50:34;4.63;;;1.67;;
79570;SDS011;69034;49.444;7.758;2023-05-10T17:54:35;6.15;;;3.03;;
79570;SDS011;69034;49.444;7.758;2023-05-10T17:58:35;2.75;;;1.27;;
79570;SDS011;69034;49.444;7.758;2023-05-10T18:02:39;2.28;;;0.88;;
79570;SDS011;69034;49.444;7.758;2023-05-10T18:06:39;2.85;;;1.05;;
79570;SDS011;69034;49.444;7.758;2023-05-10T18:10:40;3.58;;;1.40;;
79570;SDS011;69034;49.444;7.758;2023-05-10T18:14:41;2.55;;;0.98;;
79570;SDS011;69034;49.444;7.758;2023-05-10T18:18:41;3.72;;;1.20;;
79570;SDS011;69034;49.444;7.758;2023-05-10T18:22:42;6.70;;;3.65;;
79570;SDS011;69034;49.444;7.758;2023-05-10T18:26:43;7.70;;;3.78;;
79570;SDS011;69034;49.444;7.758;2023-05-10T18:30:44;6.30;;;3.22;;
79570;SDS011;69034;49.444;7.758;2023-05-10T18:34:45;6.82;;;2.63;;
79570;SDS011;69034;49.444;7.758;2023-05-10T18:38:46;5.78;;;2.80;;
79570;SDS011;69034;49.444;7.758;2023-05-10T18:42:46;4.95;;;2.58;;
79570;SDS011;69034;49.444;7.758;2023-05-10T18:46:49;5.90;;;2.58;;
79570;SDS011;69034;49.444;7.758;2023-05-10T18:50:52;7.13;;;2.40;;
79570;SDS011;69034;49.444;7.758;2023-05-10T18:54:53;3.13;;;1.42;;
79570;SDS011;69034;49.444;7.758;2023-05-10T18:58:53;4.72;;;1.90;;
79570;SDS011;69034;49.444;7.758;2023-05-10T19:02:54;2.60;;;1.17;;
79570;SDS011;69034;49.444;7.758;2023-05-10T19:06:55;2.85;;;1.20;;
79570;SDS011;69034;49.444;7.758;2023-05-10T19:10:56;5.80;;;1.73;;
79570;SDS011;69034;49.444;7.758;2023-05-10T19:14:57;4.22;;;0.65;;
79570;SDS011;69034;49.444;7.758;2023-05-10T19:18:57;2.72;;;1.05;;
79570;SDS011;69034;49.444;7.758;2023-05-10T19:22:58;3.45;;;1.17;;
79570;SDS011;69034;49.444;7.758;2023-05-10T19:26:59;4.20;;;0.93;;
79570;SDS011;69034;49.444;7.758;2023-05-10T19:31:00;2.88;;;0.98;;
79570;SDS011;69034;49.444;7.758;2023-05-10T19:35:00;2.60;;;1.20;;
79570;SDS011;69034;49.444;7.758;2023-05-10T19:39:01;2.33;;;0.98;;
79570;SDS011;69034;49.444;7.758;2023-05-10T19:43:02;2.60;;;1.00;;
79570;SDS011;69034;49.444;7.758;2023-05-10T19:47:03;3.78;;;1.15;;
79570;SDS011;69034;49.444;7.758;2023-05-10T19:51:04;1.40;;;0.60;;
79570;SDS011;69034;49.444;7.758;2023-05-10T19:55:05;1.90;;;0.75;;
79570;SDS011;69034;49.444;7.758;2023-05-10T19:59:06;2.45;;;0.98;;
79570;SDS011;69034;49.444;7.758;2023-05-10T20:03:07;1.52;;;0.60;;
79570;SDS011;69034;49.444;7.758;2023-05-10T20:07:07;2.35;;;0.60;;
79570;SDS011;69034;49.444;7.758;2023-05-10T20:11:08;2.13;;;0.57;;
79570;SDS011;69034;49.444;7.758;2023-05-10T20:15:09;1.10;;;0.50;;
79570;SDS011;69034;49.444;7.758;2023-05-10T20:19:10;1.63;;;0.77;;
79570;SDS011;69034;49.444;7.758;2023-05-10T20:23:11;3.65;;;0.90;;
79570;SDS011;69034;49.444;7.758;2023-05-10T20:27:12;5.50;;;1.00;;
79570;SDS011;69034;49.444;7.758;2023-05-10T20:31:12;2.75;;;1.25;;
79570;SDS011;69034;49.444;7.758;2023-05-10T20:35:13;1.45;;;0.60;;
79570;SDS011;69034;49.444;7.758;2023-05-10T20:39:13;2.47;;;0.80;;
79570;SDS011;69034;49.444;7.758;2023-05-10T20:43:14;4.40;;;1.70;;
79570;SDS011;69034;49.444;7.758;2023-05-10T20:47:15;5.32;;;2.20;;
79570;SDS011;69034;49.444;7.758;2023-05-10T20:51:16;3.75;;;1.33;;
79570;SDS011;69034;49.444;7.758;2023-05-10T20:55:17;2.95;;;1.30;;
79570;SDS011;69034;49.444;7.758;2023-05-10T20:59:19;2.78;;;0.85;;
79570;SDS011;69034;49.444;7.758;2023-05-10T21:03:20;2.05;;;0.98;;
79570;SDS011;69034;49.444;7.758;2023-05-10T21:07:24;2.15;;;0.65;;
79570;SDS011;69034;49.444;7.758;2023-05-10T21:11:25;3.83;;;0.82;;
79570;SDS011;69034;49.444;7.758;2023-05-10T21:15:25;1.92;;;0.70;;
79570;SDS011;69034;49.444;7.758;2023-05-10T21:19:26;2.38;;;0.80;;
79570;SDS011;69034;49.444;7.758;2023-05-10T21:23:27;2.15;;;0.88;;
79570;SDS011;69034;49.444;7.758;2023-05-10T21:27:28;3.28;;;0.90;;
79570;SDS011;69034;49.444;7.758;2023-05-10T21:31:28;2.45;;;0.77;;
79570;SDS011;69034;49.444;7.758;2023-05-10T21:35:30;1.65;;;0.60;;
79570;SDS011;69034;49.444;7.758;2023-05-10T21:39:31;1.77;;;0.60;;
79570;SDS011;69034;49.444;7.758;2023-05-10T21:43:32;1.77;;;0.80;;
79570;SDS011;69034;49.444;7.758;2023-05-10T21:47:32;3.05;;;1.10;;
79570;SDS011;69034;49.444;7.758;2023-05-10T21:51:33;1.45;;;0.60;;
79570;SDS011;69034;49.444;7.758;2023-05-10T21:55:34;2.25;;;0.70;;
79570;SDS011;69034;49.444;7.758;2023-05-10T21:59:35;1.92;;;0.80;;
79570;SDS011;69034;49.444;7.758;2023-05-10T22:03:36;1.40;;;0.68;;
79570;SDS011;69034;49.444;7.758;2023-05-10T22:07:36;2.85;;;0.80;;
79570;SDS011;69034;49.444;7.758;2023-05-10T22:11:38;2.83;;;0.73;;
79570;SDS011;69034;49.444;7.758;2023-05-10T22:15:39;2.38;;;0.98;;
79570;SDS011;69034;49.444;7.758;2023-05-10T22:19:40;4.05;;;0.85;;
79570;SDS011;69034;49.444;7.758;2023-05-10T22:23:40;2.60;;;1.05;;
79570;SDS011;69034;49.444;7.758;2023-05-10T22:27:41;3.75;;;0.90;;
79570;SDS011;69034;49.444;7.758;2023-05-10T22:31:42;3.08;;;0.68;;
79570;SDS011;69034;49.444;7.758;2023-05-10T22:35:42;1.92;;;0.70;;
79570;SDS011;69034;49.444;7.758;2023-05-10T22:39:46;3.53;;;0.70;;
79570;SDS011;69034;49.444;7.758;2023-05-10T22:43:47;3.05;;;0.90;;
79570;SDS011;69034;49.444;7.758;2023-05-10T22:47:48;2.05;;;0.90;;
79570;SDS011;69034;49.444;7.758;2023-05-10T22:51:49;2.75;;;1.05;;
79570;SDS011;69034;49.444;7.758;2023-05-10T22:55:50;2.28;;;0.80;;
79570;SDS011;69034;49.444;7.758;2023-05-10T22:59:51;1.63;;;0.60;;
79570;SDS011;69034;49.444;7.758;2023-05-10T23:03:52;1.48;;;0.60;;
79570;SDS011;69034;49.444;7.758;2023-05-10T23:07:52;1.92;;;0.80;;
79570;SDS011;69034;49.444;7.758;2023-05-10T23:11:53;1.92;;;0.68;;
79570;SDS011;69034;49.444;7.758;2023-05-10T23:15:54;2.53;;;0.80;;
79570;SDS011;69034;49.444;7.758;2023-05-10T23:19:54;2.70;;;0.75;;
79570;SDS011;69034;49.444;7.758;2023-05-10T23:23:55;2.03;;;0.65;;
79570;SDS011;69034;49.444;7.758;2023-05-10T23:27:56;2.88;;;0.80;;
79570;SDS011;69034;49.444;7.758;2023-05-10T23:31:56;1.63;;;0.65;;
79570;SDS011;69034;49.444;7.758;2023-05-10T23:35:57;1.70;;;0.70;;
79570;SDS011;69034;49.444;7.758;2023-05-10T23:39:58;1.88;;;0.80;;
79570;SDS011;69034;49.444;7.758;2023-05-10T23:43:59;3.38;;;0.75;;
79570;SDS011;69034;49.444;7.758;2023-05-10T23:48:01;1.23;;;0.65;;
79570;SDS011;69034;49.444;7.758;2023-05-10T23:52:01;1.75;;;0.73;;
79570;SDS011;69034;49.444;7.758;2023-05-10T23:56:02;1.60;;;0.60;;
